createdAt,value
2022-11-05T05:02:52.715Z,8.30
2022-11-05T05:06:55.348Z,6.97
2022-11-05T05:11:02.238Z,7.63
2022-11-05T05:15:05.562Z,6.90
2022-11-05T05:19:09.490Z,6.72
2022-11-05T05:23:12.451Z,6.28
2022-11-05T05:27:15.442Z,6.97
2022-11-05T05:31:18.013Z,7.07
2022-11-05T05:35:21.960Z,7.33
2022-11-05T05:39:24.632Z,7.47
2022-11-05T05:43:27.353Z,8.43
2022-11-05T05:47:29.947Z,7.70
2022-11-05T05:51:33.856Z,8.47
2022-11-05T05:55:36.519Z,8.32
2022-11-05T05:59:39.089Z,7.90
2022-11-05T06:03:41.821Z,8.32
2022-11-05T06:07:45.787Z,8.37
2022-11-05T06:11:48.447Z,8.63
2022-11-05T06:15:51.103Z,8.80
2022-11-05T06:19:53.697Z,8.83
2022-11-05T06:23:57.634Z,8.83
2022-11-05T06:28:00.772Z,8.68
2022-11-05T06:32:03.385Z,8.43
2022-11-05T06:36:07.577Z,7.63
2022-11-05T06:40:12.316Z,8.02
2022-11-05T06:44:14.911Z,8.40
2022-11-05T06:48:17.506Z,7.50
2022-11-05T06:52:20.926Z,7.90
2022-11-05T06:56:25.343Z,7.90
2022-11-05T07:00:28.007Z,7.95
2022-11-05T07:04:30.642Z,9.03
2022-11-05T07:08:34.189Z,7.23
2022-11-05T07:16:40.546Z,7.60
2022-11-05T07:20:43.208Z,7.60
2022-11-05T07:24:47.304Z,7.67
2022-11-05T07:28:51.468Z,7.55
2022-11-05T07:32:54.122Z,7.55
2022-11-05T07:36:56.758Z,8.83
2022-11-05T07:41:00.400Z,9.03
2022-11-05T07:45:04.958Z,8.15
2022-11-05T07:49:07.586Z,8.48
2022-11-05T07:53:12.519Z,8.40
2022-11-05T07:57:15.311Z,8.95
2022-11-05T08:01:19.439Z,9.50
2022-11-05T08:05:22.227Z,9.73
2022-11-05T08:09:24.828Z,9.90
2022-11-05T08:13:27.438Z,9.33
2022-11-05T08:17:31.422Z,9.43
2022-11-05T08:21:33.996Z,8.90
2022-11-05T08:25:36.868Z,8.93
2022-11-05T08:29:39.444Z,9.10
2022-11-05T08:33:43.637Z,9.97
2022-11-05T08:37:46.271Z,9.50
2022-11-05T08:41:50.095Z,8.70
2022-11-05T08:45:54.034Z,8.43
2022-11-05T08:49:57.954Z,8.10
2022-11-05T08:54:00.564Z,8.05
2022-11-05T08:58:04.906Z,7.53
2022-11-05T09:02:07.839Z,7.55
2022-11-05T09:06:11.937Z,7.32
2022-11-05T09:10:14.601Z,7.78
2022-11-05T09:14:17.245Z,7.60
2022-11-05T09:18:21.440Z,7.60
2022-11-05T09:22:25.552Z,6.57
2022-11-05T09:26:28.175Z,6.82
2022-11-05T09:30:30.783Z,8.00
2022-11-05T09:34:33.692Z,7.23
2022-11-05T09:38:37.647Z,7.35
2022-11-05T09:42:43.626Z,7.05
2022-11-05T09:46:50.949Z,7.60
2022-11-05T09:50:54.617Z,7.50
2022-11-05T09:54:59.302Z,7.45
2022-11-05T09:59:07.217Z,7.53
2022-11-05T10:03:15.042Z,7.05
2022-11-05T10:07:22.281Z,7.65
2022-11-05T10:11:32.705Z,6.47
2022-11-05T10:15:40.389Z,7.07
2022-11-05T10:19:47.030Z,6.72
2022-11-05T10:23:49.910Z,6.75
2022-11-05T10:27:55.904Z,6.50
2022-11-05T10:32:00.949Z,6.68
2022-11-05T10:36:07.086Z,6.10
2022-11-05T10:40:17.481Z,6.55
2022-11-05T10:44:36.706Z,5.68
2022-11-05T10:48:52.986Z,5.57
2022-11-05T10:52:59.758Z,6.07
2022-11-05T10:57:24.822Z,6.78
2022-11-05T11:01:30.467Z,4.78
2022-11-05T11:05:36.193Z,4.53
2022-11-05T11:09:39.489Z,3.60
2022-11-05T11:13:59.105Z,3.80
2022-11-05T11:18:27.957Z,3.38
2022-11-05T11:22:30.586Z,3.35
2022-11-05T11:26:34.913Z,3.20
2022-11-05T11:30:37.593Z,3.50
2022-11-05T11:34:43.452Z,2.93
2022-11-05T11:38:47.078Z,2.80
2022-11-05T11:42:54.401Z,2.95
2022-11-05T11:47:01.088Z,2.30
2022-11-05T11:51:18.237Z,2.28
2022-11-05T11:55:23.129Z,2.90
2022-11-05T11:59:53.851Z,2.60
2022-11-05T12:03:56.079Z,2.30
2022-11-05T12:08:11.149Z,2.53
2022-11-05T12:12:15.391Z,2.40
2022-11-05T12:16:30.330Z,2.00
2022-11-05T12:20:57.983Z,1.90
2022-11-05T12:25:22.547Z,2.67
2022-11-05T12:29:49.283Z,2.00
2022-11-05T12:34:03.415Z,1.80
2022-11-05T12:38:16.281Z,1.73
2022-11-05T12:42:33.933Z,1.63
2022-11-05T12:46:41.020Z,1.77
2022-11-05T12:50:46.356Z,2.22
2022-11-05T12:55:01.023Z,1.90
2022-11-05T12:59:12.162Z,1.80
2022-11-05T13:03:32.632Z,1.85
2022-11-05T13:07:40.070Z,2.00
2022-11-05T13:11:48.049Z,1.75
2022-11-05T13:15:55.875Z,2.35
2022-11-05T13:20:03.848Z,1.63
2022-11-05T13:24:13.633Z,1.73
2022-11-05T13:28:22.916Z,1.83
2022-11-05T13:32:31.154Z,1.50
2022-11-05T13:36:57.114Z,1.40
2022-11-05T13:41:13.289Z,1.45
2022-11-05T13:45:53.428Z,1.30
2022-11-05T13:50:14.674Z,1.23
2022-11-05T13:55:08.128Z,1.02
2022-11-05T13:59:55.428Z,0.90
2022-11-05T14:03:58.483Z,1.23
2022-11-05T14:08:10.150Z,1.23
2022-11-05T14:12:21.573Z,0.90
2022-11-05T14:16:26.436Z,1.40
2022-11-05T14:20:57.535Z,1.38
2022-11-05T14:25:02.586Z,1.25
2022-11-05T14:29:38.189Z,1.25
2022-11-05T14:33:40.986Z,1.50
2022-11-05T14:37:52.831Z,1.25
2022-11-05T14:42:03.604Z,1.23
2022-11-05T14:46:07.861Z,1.35
2022-11-05T14:50:18.657Z,1.63
2022-11-05T14:54:24.034Z,1.65
2022-11-05T14:58:36.902Z,1.70
2022-11-05T15:02:39.604Z,1.40
2022-11-05T15:07:33.142Z,1.42
2022-11-05T15:11:39.817Z,1.85
2022-11-05T15:15:47.946Z,1.70
2022-11-05T15:19:53.034Z,1.60
2022-11-05T15:23:57.748Z,1.45
2022-11-05T15:28:06.280Z,1.60
2022-11-05T15:32:17.345Z,1.60
2022-11-05T15:36:24.676Z,1.48
2022-11-05T15:40:31.823Z,1.42
2022-11-05T15:44:41.313Z,1.35
2022-11-05T15:48:49.820Z,1.40
2022-11-05T15:52:54.606Z,1.40
2022-11-05T15:56:59.629Z,1.70
2022-11-05T16:01:02.272Z,1.70
2022-11-05T16:05:13.461Z,1.80
2022-11-05T16:09:23.023Z,1.60
2022-11-05T16:13:33.124Z,1.70
2022-11-05T16:17:47.575Z,1.58
2022-11-05T16:21:57.694Z,2.33
2022-11-05T16:26:01.869Z,1.58
2022-11-05T16:30:04.987Z,1.55
2022-11-05T16:34:07.946Z,1.75
2022-11-05T16:38:14.295Z,1.58
2022-11-05T16:42:38.883Z,1.75
2022-11-05T16:46:45.159Z,1.80
2022-11-05T16:50:48.144Z,1.77
2022-11-05T16:54:52.097Z,1.70
2022-11-05T16:58:54.871Z,1.83
2022-11-05T17:02:57.691Z,2.22
2022-11-05T17:07:00.621Z,1.90
2022-11-05T17:11:04.971Z,1.88
2022-11-05T17:15:17.820Z,1.80
2022-11-05T17:19:20.453Z,1.90
2022-11-05T17:23:26.614Z,2.00
2022-11-05T17:27:30.609Z,2.90
2022-11-05T17:31:33.333Z,2.80
2022-11-05T17:35:38.876Z,3.43
2022-11-05T17:39:41.529Z,2.40
2022-11-05T17:43:45.855Z,1.93
2022-11-05T17:47:48.440Z,1.83
2022-11-05T17:51:51.182Z,2.07
2022-11-05T17:55:53.828Z,2.90
2022-11-05T17:59:58.372Z,4.90
2022-11-05T18:04:07.266Z,8.02
2022-11-05T18:08:12.459Z,6.05
2022-11-05T18:12:15.101Z,7.25
2022-11-05T18:16:19.077Z,11.77
2022-11-05T18:20:21.922Z,9.10
2022-11-05T18:24:24.658Z,9.02
2022-11-05T18:28:29.890Z,5.37
2022-11-05T18:32:34.171Z,5.85
2022-11-05T18:36:37.077Z,5.20
2022-11-05T18:40:40.072Z,5.20
2022-11-05T18:44:42.788Z,5.97
2022-11-05T18:48:47.113Z,5.70
2022-11-05T18:52:49.684Z,6.30
2022-11-05T18:56:52.442Z,5.57
2022-11-05T19:00:55.057Z,6.00
2022-11-05T19:09:21.674Z,4.82
2022-11-05T19:13:24.316Z,5.27
2022-11-05T19:17:27.001Z,4.00
2022-11-05T19:21:31.714Z,2.97
2022-11-05T19:25:34.402Z,2.95
2022-11-05T19:29:37.046Z,3.23
2022-11-05T19:33:39.675Z,3.10
2022-11-05T19:37:43.915Z,2.90
2022-11-05T19:41:47.745Z,3.60
2022-11-05T19:45:50.436Z,3.80
2022-11-05T19:49:53.112Z,3.77
2022-11-05T19:53:57.673Z,4.23
2022-11-05T19:58:00.441Z,5.20
2022-11-05T20:02:03.232Z,7.50
2022-11-05T20:06:08.711Z,7.05
2022-11-05T20:10:12.716Z,6.20
2022-11-05T20:14:15.416Z,7.53
2022-11-05T20:18:18.320Z,6.90
2022-11-05T20:22:21.161Z,7.40
2022-11-05T20:26:25.183Z,8.00
2022-11-05T20:30:27.891Z,11.05
2022-11-05T20:34:30.985Z,7.43
2022-11-05T20:38:34.231Z,6.95
2022-11-05T20:42:38.277Z,6.93
2022-11-05T20:46:41.337Z,5.90
2022-11-05T20:50:44.976Z,5.50
2022-11-05T20:54:47.937Z,4.93
2022-11-05T20:58:52.738Z,4.80
2022-11-05T21:02:55.535Z,5.10
2022-11-05T21:06:58.263Z,4.22
2022-11-05T21:11:01.603Z,4.50
2022-11-05T21:15:06.657Z,5.10
2022-11-05T21:19:09.623Z,5.25
2022-11-05T21:23:12.420Z,4.70
2022-11-05T21:27:15.027Z,5.20
2022-11-05T21:31:19.101Z,5.23
2022-11-05T21:35:21.741Z,5.50
2022-11-05T21:39:24.473Z,5.33
2022-11-05T21:43:27.073Z,5.90
2022-11-05T21:47:31.759Z,4.97
2022-11-05T21:51:52.275Z,5.72
2022-11-05T21:56:12.567Z,6.03
